Time;durP1;ratioP1;P1;durP2;ratioP2;P2;SDS_P1;SDS_P2;PMS_P1;PMS_P2;Temp;Humidity;BMP_temperature;BMP_pressure;BME280_temperature;BME280_humidity;BME280_pressure;Samples;Min_cycle;Max_cycle;Signal;HPM_P1;HPM_P2
2020/12/02 00:00:06;;;;;;;9.57;5.20;;;17.30;53.90;;;;;;5079588;28;20665;-86
2020/12/02 00:02:56;;;;;;;8.52;5.38;;;17.30;53.90;;;;;;5079829;28;20179;-86
2020/12/02 00:05:25;;;;;;;8.65;5.18;;;17.20;53.90;;;;;;5112135;28;20232;-87
2020/12/02 00:07:56;;;;;;;10.50;6.15;;;17.20;53.90;;;;;;5079107;28;20190;-86
2020/12/02 00:10:30;;;;;;;8.93;5.47;;;17.20;53.90;;;;;;5062374;28;20173;-86
2020/12/02 00:12:57;;;;;;;8.23;5.20;;;17.20;53.80;;;;;;5078902;28;20183;-86
2020/12/02 00:15:31;;;;;;;8.75;5.50;;;17.20;53.90;;;;;;5079552;28;20153;-86
2020/12/02 00:18:06;;;;;;;8.82;5.25;;;17.20;53.80;;;;;;5078310;28;20159;-87
2020/12/02 00:20:32;;;;;;;8.10;5.88;;;17.30;53.90;;;;;;5062202;28;20298;-86
2020/12/02 00:22:58;;;;;;;9.13;5.40;;;17.30;53.90;;;;;;5095901;28;20211;-86
2020/12/02 00:25:24;;;;;;;10.52;5.75;;;17.20;53.70;;;;;;5095964;28;20157;-86
2020/12/02 00:27:50;;;;;;;9.70;5.60;;;17.20;53.70;;;;;;5078632;28;20165;-86
2020/12/02 00:30:16;;;;;;;7.68;5.32;;;17.30;53.80;;;;;;5078729;28;20161;-87
2020/12/02 00:32:44;;;;;;;9.25;5.43;;;17.20;53.90;;;;;;5077955;28;20217;-86
2020/12/02 00:35:19;;;;;;;10.10;5.90;;;17.20;53.80;;;;;;5095315;28;20170;-86
2020/12/02 00:37:45;;;;;;;8.80;5.60;;;17.30;53.70;;;;;;5078817;28;20603;-86
2020/12/02 00:40:12;;;;;;;8.60;5.45;;;17.30;53.80;;;;;;5078407;28;20252;-87
2020/12/02 00:42:40;;;;;;;8.55;5.00;;;17.20;53.80;;;;;;5095157;28;20165;-86
2020/12/02 00:45:08;;;;;;;10.93;6.43;;;17.20;53.80;;;;;;5061670;28;20157;-86
2020/12/02 00:47:36;;;;;;;10.23;6.03;;;17.20;53.70;;;;;;5062072;28;20188;-86
2020/12/02 00:50:05;;;;;;;8.93;5.80;;;17.20;53.70;;;;;;5077925;28;20156;-86
2020/12/02 00:52:32;;;;;;;8.90;5.10;;;17.20;53.80;;;;;;5061114;28;20188;-86
2020/12/02 00:55:00;;;;;;;8.20;5.50;;;17.20;53.90;;;;;;5078097;28;20164;-88
2020/12/02 00:57:30;;;;;;;8.77;5.65;;;17.20;53.90;;;;;;5096220;28;20563;-86
2020/12/02 00:59:57;;;;;;;9.57;5.40;;;17.20;53.90;;;;;;5078852;28;20592;-86
2020/12/02 01:02:41;;;;;;;9.60;5.78;;;17.20;54.00;;;;;;5078103;28;20191;-87
2020/12/02 01:05:17;;;;;;;11.23;5.90;;;17.20;53.90;;;;;;5069065;28;20161;-86
2020/12/02 01:07:44;;;;;;;9.48;5.82;;;17.20;53.90;;;;;;5076748;28;20164;-87
2020/12/02 01:10:18;;;;;;;9.13;6.10;;;17.20;53.90;;;;;;5077696;28;20160;-86
2020/12/02 01:12:48;;;;;;;9.27;5.25;;;17.20;53.80;;;;;;5077619;28;20187;-87
2020/12/02 01:15:17;;;;;;;8.68;5.55;;;17.20;53.90;;;;;;5061128;28;20152;-87
2020/12/02 01:17:43;;;;;;;9.27;5.90;;;17.20;53.90;;;;;;5095208;28;20263;-86
2020/12/02 01:20:11;;;;;;;7.35;5.18;;;17.20;53.90;;;;;;5094385;28;20224;-86
2020/12/02 01:22:41;;;;;;;8.82;5.70;;;17.20;53.90;;;;;;5061172;28;20172;-87
2020/12/02 01:25:10;;;;;;;9.45;5.90;;;17.20;53.80;;;;;;5095074;28;20161;-86
2020/12/02 01:28:06;;;;;;;8.35;5.25;;;17.10;53.90;;;;;;5077436;28;20604;-86
2020/12/02 01:30:36;;;;;;;9.38;5.90;;;17.20;53.90;;;;;;5095290;28;20531;-86
2020/12/02 01:33:02;;;;;;;10.10;6.13;;;17.10;53.90;;;;;;5094167;28;20678;-86
2020/12/02 01:35:28;;;;;;;9.43;5.57;;;17.20;53.80;;;;;;5094092;28;20173;-85
2020/12/02 01:38:03;;;;;;;8.20;5.80;;;17.10;53.90;;;;;;5094130;28;20153;-87
2020/12/02 01:40:33;;;;;;;10.35;6.40;;;17.10;53.90;;;;;;5094367;28;20155;-87
2020/12/02 01:43:01;;;;;;;8.82;5.47;;;17.10;54.10;;;;;;5061212;28;20238;-86
2020/12/02 01:45:37;;;;;;;8.50;5.70;;;17.10;54.20;;;;;;5077266;28;20164;-86
2020/12/02 01:48:12;;;;;;;8.63;5.28;;;17.10;54.20;;;;;;5077045;28;20214;-86
2020/12/02 01:50:40;;;;;;;11.13;5.88;;;17.10;54.00;;;;;;5077425;28;20225;-86
2020/12/02 01:53:12;;;;;;;10.48;5.93;;;17.10;54.10;;;;;;5076790;28;20188;-85
2020/12/02 01:56:10;;;;;;;8.82;5.95;;;17.10;53.90;;;;;;5060219;28;20196;-86
2020/12/02 01:58:49;;;;;;;7.97;5.50;;;17.10;54.00;;;;;;5077552;28;20181;-87
2020/12/02 02:01:32;;;;;;;8.73;5.90;;;17.10;54.10;;;;;;5076912;28;20163;-87
2020/12/02 02:03:58;;;;;;;8.70;5.55;;;17.00;53.80;;;;;;5078288;28;20612;-86
2020/12/02 02:07:07;;;;;;;9.15;5.95;;;17.10;53.90;;;;;;5076628;28;20157;-86
2020/12/02 02:09:33;;;;;;;10.25;5.97;;;17.10;54.00;;;;;;5015710;28;20277;-86
2020/12/02 02:12:50;;;;;;;8.13;5.45;;;17.10;54.00;;;;;;5016182;28;20249;-87
2020/12/02 02:15:28;;;;;;;9.43;5.70;;;17.10;53.90;;;;;;4976457;28;20196;-86
2020/12/02 02:17:59;;;;;;;8.43;5.60;;;17.10;54.00;;;;;;4993094;28;20164;-86
2020/12/02 02:20:30;;;;;;;9.45;6.07;;;17.10;53.90;;;;;;4992687;28;20658;-86
2020/12/02 02:23:00;;;;;;;9.95;5.72;;;17.10;53.90;;;;;;4992995;28;20177;-87
2020/12/02 02:25:25;;;;;;;9.68;5.57;;;17.00;54.00;;;;;;4993026;28;20559;-86
2020/12/02 02:27:51;;;;;;;8.55;5.25;;;17.00;53.90;;;;;;4993029;28;20190;-86
2020/12/02 02:30:17;;;;;;;8.27;5.55;;;17.00;53.90;;;;;;4976476;28;20567;-86
2020/12/02 02:32:43;;;;;;;10.70;5.88;;;17.00;54.00;;;;;;4992751;28;20306;-87
2020/12/02 02:35:09;;;;;;;8.75;5.43;;;17.00;54.00;;;;;;4976653;28;20168;-85
2020/12/02 02:37:35;;;;;;;8.38;5.50;;;17.00;54.00;;;;;;4993047;28;20542;-87
2020/12/02 02:40:03;;;;;;;8.40;5.70;;;17.00;53.80;;;;;;4995836;28;20183;-87
2020/12/02 02:42:33;;;;;;;9.10;5.63;;;17.10;53.90;;;;;;5012171;28;20645;-87
2020/12/02 02:45:00;;;;;;;10.50;5.88;;;17.10;53.80;;;;;;5017384;28;20174;-86
2020/12/02 02:47:26;;;;;;;8.77;6.20;;;17.00;53.90;;;;;;5054092;28;20196;-87
2020/12/02 02:49:52;;;;;;;8.10;5.00;;;17.00;53.90;;;;;;5093070;28;20157;-86
2020/12/02 02:52:19;;;;;;;9.48;5.70;;;17.00;54.00;;;;;;5093145;28;20168;-86
2020/12/02 02:54:46;;;;;;;9.40;5.82;;;17.00;53.90;;;;;;5093394;28;20160;-87
2020/12/02 02:57:14;;;;;;;9.65;5.88;;;17.00;53.80;;;;;;5076580;28;20161;-86
2020/12/02 02:59:41;;;;;;;8.77;6.05;;;17.00;53.90;;;;;;5094716;28;20236;-86
2020/12/02 03:02:14;;;;;;;8.88;5.63;;;17.00;53.80;;;;;;5076116;28;20202;-87
2020/12/02 03:04:40;;;;;;;9.25;5.78;;;17.00;53.80;;;;;;5059555;28;20164;-87
2020/12/02 03:07:13;;;;;;;8.70;5.47;;;17.00;53.80;;;;;;5093298;28;20148;-86
2020/12/02 03:09:39;;;;;;;9.18;5.88;;;17.00;53.70;;;;;;5093376;28;20620;-86
2020/12/02 03:12:05;;;;;;;8.65;5.80;;;17.00;53.70;;;;;;5093337;28;20232;-87
2020/12/02 03:14:33;;;;;;;8.93;5.65;;;17.00;53.90;;;;;;5075857;28;20242;-86
2020/12/02 03:17:00;;;;;;;7.95;5.38;;;17.00;53.90;;;;;;5076078;28;20635;-86
2020/12/02 03:19:29;;;;;;;9.77;6.10;;;17.00;53.90;;;;;;5076272;28;20184;-85
2020/12/02 03:21:57;;;;;;;8.85;5.53;;;17.00;53.80;;;;;;5093687;28;20156;-87
2020/12/02 03:24:24;;;;;;;8.02;5.63;;;17.00;53.90;;;;;;5093529;28;20153;-86
2020/12/02 03:26:49;;;;;;;8.13;5.38;;;17.00;53.90;;;;;;5076381;28;20164;-87
2020/12/02 03:29:15;;;;;;;9.93;6.05;;;17.00;53.90;;;;;;5076240;28;20160;-87
2020/12/02 03:31:43;;;;;;;7.60;5.53;;;17.00;54.00;;;;;;5093641;28;20699;-86
2020/12/02 03:34:12;;;;;;;8.02;5.50;;;17.00;53.90;;;;;;5075535;28;20271;-86
2020/12/02 03:36:42;;;;;;;8.65;5.35;;;17.00;53.80;;;;;;5076097;28;20166;-86
2020/12/02 03:39:10;;;;;;;9.95;5.72;;;17.00;53.90;;;;;;5076163;28;20172;-87
2020/12/02 03:41:37;;;;;;;8.77;5.43;;;17.00;54.00;;;;;;5075908;28;20157;-87
2020/12/02 03:44:11;;;;;;;8.30;5.38;;;17.00;54.00;;;;;;5093772;28;20153;-87
2020/12/02 03:46:38;;;;;;;7.65;5.10;;;17.00;54.00;;;;;;5075868;28;20160;-87
2020/12/02 03:49:05;;;;;;;8.70;5.63;;;17.00;54.00;;;;;;5075744;28;20161;-86
2020/12/02 03:51:33;;;;;;;8.55;5.45;;;16.90;53.90;;;;;;5059582;28;20169;-86
2020/12/02 03:54:07;;;;;;;8.90;5.85;;;17.00;54.00;;;;;;5062529;28;20279;-87
2020/12/02 03:56:34;;;;;;;9.00;6.00;;;16.90;54.00;;;;;;5079507;28;20554;-85
2020/12/02 03:59:01;;;;;;;8.30;5.53;;;16.90;53.80;;;;;;5079183;28;20206;-86
2020/12/02 04:01:27;;;;;;;8.18;5.47;;;16.90;53.90;;;;;;5097722;28;20219;-86
2020/12/02 04:03:54;;;;;;;8.98;5.50;;;17.00;53.80;;;;;;5097327;28;20615;-87
2020/12/02 04:06:21;;;;;;;7.80;5.40;;;17.00;53.80;;;;;;5062911;28;20169;-86
2020/12/02 04:08:47;;;;;;;7.28;5.30;;;17.00;53.90;;;;;;5062628;28;20265;-87
2020/12/02 04:11:14;;;;;;;6.55;4.70;;;17.00;53.90;;;;;;5079045;28;20290;-87
2020/12/02 04:13:39;;;;;;;8.82;5.65;;;16.90;53.70;;;;;;5078991;28;20242;-87
2020/12/02 04:16:05;;;;;;;7.82;5.38;;;17.00;53.80;;;;;;5062204;28;20169;-87
2020/12/02 04:18:31;;;;;;;7.78;5.40;;;16.90;53.90;;;;;;5078798;28;20257;-87
2020/12/02 04:21:00;;;;;;;8.75;5.90;;;16.90;53.90;;;;;;5079034;28;20235;-87
2020/12/02 04:23:25;;;;;;;9.25;5.88;;;16.90;53.90;;;;;;5096664;28;20161;-86
2020/12/02 04:25:52;;;;;;;8.88;5.65;;;16.90;54.00;;;;;;5095839;28;20153;-87
2020/12/02 04:28:20;;;;;;;8.75;5.65;;;16.90;54.00;;;;;;5095899;28;20161;-86
2020/12/02 04:30:48;;;;;;;8.15;5.30;;;16.90;53.80;;;;;;5095623;28;20183;-86
2020/12/02 04:33:14;;;;;;;8.13;5.40;;;17.00;53.90;;;;;;5078985;28;20230;-87
2020/12/02 04:35:41;;;;;;;9.05;5.50;;;17.00;53.80;;;;;;5095525;28;20165;-86
2020/12/02 04:38:16;;;;;;;8.25;5.68;;;16.90;53.80;;;;;;5078631;28;20153;-87
2020/12/02 04:40:43;;;;;;;7.28;5.03;;;16.90;53.70;;;;;;5062411;28;20595;-86
2020/12/02 04:43:32;;;;;;;8.25;5.68;;;16.90;53.70;;;;;;5095591;28;20188;-86
2020/12/02 04:46:31;;;;;;;8.48;5.32;;;16.90;53.70;;;;;;5061967;28;20214;-86
2020/12/02 04:49:12;;;;;;;8.73;5.65;;;16.90;53.70;;;;;;5093242;28;20184;-87
2020/12/02 04:51:39;;;;;;;7.20;5.18;;;16.90;53.20;;;;;;5078364;28;20168;-86
2020/12/02 04:54:07;;;;;;;7.63;5.47;;;17.10;52.80;;;;;;5061888;28;20283;-87
2020/12/02 04:56:35;;;;;;;8.75;5.53;;;17.20;52.30;;;;;;5078688;28;20172;-87
2020/12/02 04:59:01;;;;;;;7.82;5.30;;;17.20;52.40;;;;;;5078701;28;20160;-87
2020/12/02 05:01:34;;;;;;;8.18;5.45;;;17.10;52.30;;;;;;5095267;28;20164;-87
2020/12/02 05:04:18;;;;;;;7.13;5.15;;;17.20;52.20;;;;;;5061344;28;20211;-86
2020/12/02 05:06:47;;;;;;;8.63;5.47;;;17.20;52.20;;;;;;5097304;28;20259;-87
2020/12/02 05:09:17;;;;;;;8.10;5.03;;;17.20;52.10;;;;;;5078583;28;20578;-87
2020/12/02 05:12:06;;;;;;;8.32;5.35;;;17.20;52.00;;;;;;5061823;28;20169;-87
2020/12/02 05:14:37;;;;;;;7.15;5.35;;;17.30;51.90;;;;;;5077673;28;20597;-86
2020/12/02 05:17:24;;;;;;;7.65;5.10;;;17.20;52.00;;;;;;5077803;28;20159;-86
2020/12/02 05:20:14;;;;;;;7.93;5.28;;;17.20;52.10;;;;;;5078087;28;20152;-87
2020/12/02 05:22:45;;;;;;;7.82;5.28;;;17.20;52.00;;;;;;5095756;28;20153;-88
2020/12/02 05:25:22;;;;;;;7.22;5.10;;;17.20;51.80;;;;;;5078011;28;20153;-86
2020/12/02 05:27:50;;;;;;;7.32;5.10;;;17.20;51.80;;;;;;5095910;28;20212;-85
2020/12/02 05:30:27;;;;;;;6.40;4.95;;;17.20;51.90;;;;;;5094688;28;20243;-87
2020/12/02 05:33:05;;;;;;;8.00;5.45;;;17.10;51.90;;;;;;5094260;28;20208;-86
2020/12/02 05:35:32;;;;;;;7.30;5.05;;;17.10;51.80;;;;;;5095660;28;20192;-86
2020/12/02 05:37:59;;;;;;;7.47;4.93;;;17.10;51.80;;;;;;5077446;28;20160;-87
2020/12/02 05:40:25;;;;;;;7.28;5.10;;;17.10;51.70;;;;;;5077421;28;20176;-86
2020/12/02 05:43:18;;;;;;;7.25;4.85;;;17.10;51.70;;;;;;5077201;28;20161;-88
2020/12/02 05:45:46;;;;;;;8.77;5.57;;;17.10;51.70;;;;;;5056047;28;20181;-85
2020/12/02 05:48:39;;;;;;;7.40;5.15;;;17.10;51.90;;;;;;5094813;28;20177;-88
2020/12/02 05:51:07;;;;;;;6.57;5.07;;;17.10;51.90;;;;;;5077668;28;20153;-86
2020/12/02 05:53:34;;;;;;;7.38;5.20;;;17.10;51.80;;;;;;5077392;28;20265;-86
2020/12/02 05:56:01;;;;;;;6.80;4.90;;;17.10;51.70;;;;;;5077350;28;20169;-86
2020/12/02 05:58:29;;;;;;;8.27;5.95;;;17.10;51.70;;;;;;5060788;28;20171;-86
2020/12/02 06:00:55;;;;;;;6.80;5.03;;;17.10;51.60;;;;;;5094225;28;20145;-86
2020/12/02 06:03:30;;;;;;;6.50;5.00;;;17.20;51.50;;;;;;5060730;28;20183;-87
2020/12/02 06:06:04;;;;;;;7.97;5.30;;;17.10;51.40;;;;;;5097497;28;20165;-89
2020/12/02 06:09:05;;;;;;;7.28;5.30;;;17.20;51.30;;;;;;5050070;28;20528;-89
2020/12/02 06:11:43;;;;;;;8.55;5.10;;;17.10;51.40;;;;;;5081258;28;20611;-89
2020/12/02 06:14:44;;;;;;;7.43;5.20;;;17.10;51.20;;;;;;5046556;28;20225;-89
2020/12/02 06:17:35;;;;;;;6.78;4.60;;;17.20;51.10;;;;;;5064638;28;20188;-89
2020/12/02 06:20:08;;;;;;;7.32;5.18;;;17.30;50.90;;;;;;5063176;28;20177;-89
2020/12/02 06:23:00;;;;;;;7.05;4.82;;;17.20;51.00;;;;;;5058577;28;20191;-89
2020/12/02 06:26:00;;;;;;;;;;;;;;;;;;;;;
2020/12/02 06:28:47;;;;;;;7.03;5.00;;;17.20;51.10;;;;;;5097785;28;20263;-89
2020/12/02 06:31:38;;;;;;;7.65;5.50;;;17.10;51.10;;;;;;5064237;28;20180;-89
2020/12/02 06:34:23;;;;;;;6.60;5.00;;;17.10;51.20;;;;;;5065370;28;20247;-89
2020/12/02 06:37:30;;;;;;;7.07;5.20;;;17.20;51.00;;;;;;5051020;28;20218;-90
2020/12/02 06:39:58;;;;;;;6.60;5.13;;;17.20;50.80;;;;;;4964631;28;20179;-89
2020/12/02 06:43:07;;;;;;;;;;;;;;;;;;;;;
2020/12/02 06:45:42;;;;;;;7.05;5.03;;;17.20;51.00;;;;;;4979309;28;20179;-89
2020/12/02 06:51:38;;;;;;;6.85;5.15;;;17.20;50.80;;;;;;4949071;28;20659;-89
2020/12/02 06:57:31;;;;;;;6.63;4.75;;;17.30;50.60;;;;;;4919971;29;20183;-89
2020/12/02 07:00:16;;;;;;;7.32;5.30;;;17.20;50.50;;;;;;4935560;29;20186;-90
2020/12/02 07:02:58;;;;;;;7.03;4.88;;;17.20;50.70;;;;;;4935216;29;20186;-89
2020/12/02 07:05:46;;;;;;;6.78;4.50;;;17.20;50.70;;;;;;4937898;29;20194;-90
2020/12/02 07:08:36;;;;;;;7.45;4.90;;;17.30;50.30;;;;;;4936638;29;20214;-89
2020/12/02 07:11:52;;;;;;;6.72;4.97;;;17.30;50.30;;;;;;4924969;29;20190;-89
2020/12/02 07:14:34;;;;;;;;;;;;;;;;;;;;;
2020/12/02 07:17:09;;;;;;;7.10;5.18;;;17.30;50.40;;;;;;4980195;28;20252;-88
2020/12/02 07:20:13;;;;;;;;;;;;;;;;;;;;;
2020/12/02 07:22:49;;;;;;;6.57;4.80;;;17.30;50.40;;;;;;4982077;28;20283;-89
2020/12/02 07:25:39;;;;;;;6.72;5.15;;;17.30;50.50;;;;;;4982598;28;20252;-89
2020/12/02 07:28:18;;;;;;;7.53;4.97;;;17.30;50.30;;;;;;4980177;28;20193;-91
2020/12/02 07:31:07;;;;;;;;;;;;;;;;;;;;;
2020/12/02 07:34:12;;;;;;;6.70;4.72;;;17.30;51.20;;;;;;5041480;28;20277;-90
2020/12/02 07:37:00;;;;;;;6.55;4.95;;;17.40;50.70;;;;;;5017512;28;20187;-91
2020/12/02 07:40:09;;;;;;;6.85;4.90;;;17.40;50.50;;;;;;5010064;28;20187;-89
2020/12/02 07:42:40;;;;;;;6.38;4.63;;;17.40;50.60;;;;;;5008694;28;20172;-89
2020/12/02 07:45:40;;;;;;;6.30;4.90;;;17.40;50.60;;;;;;4975573;28;20209;-88
2020/12/02 07:55:32;;;;;;;7.68;5.22;;;17.40;50.40;;;;;;5026155;28;20194;-90
2020/12/02 07:58:41;;;;;;;5.68;4.55;;;17.40;50.30;;;;;;4978905;28;20191;-90
2020/12/02 08:01:54;;;;;;;;;;;;;;;;;;;;;
2020/12/02 08:04:21;;;;;;;6.88;4.95;;;17.50;50.10;;;;;;5025945;28;20217;-89
2020/12/02 08:07:17;;;;;;;8.43;5.03;;;17.60;50.00;;;;;;5007861;28;20176;-88
2020/12/02 08:10:03;;;;;;;6.80;4.90;;;17.50;50.40;;;;;;4975304;28;20193;-89
2020/12/02 08:12:30;;;;;;;6.28;4.78;;;17.40;50.40;;;;;;5044919;28;20178;-89
2020/12/02 08:15:06;;;;;;;7.10;5.03;;;17.40;50.50;;;;;;5009499;28;20209;-88
2020/12/02 08:17:33;;;;;;;7.05;4.80;;;17.40;50.60;;;;;;5028938;28;20170;-87
2020/12/02 08:20:20;;;;;;;7.57;4.65;;;17.40;50.30;;;;;;5029758;28;20209;-86
2020/12/02 08:22:49;;;;;;;6.35;4.70;;;17.40;50.10;;;;;;5027861;28;20610;-88
2020/12/02 08:25:28;;;;;;;6.45;4.80;;;17.50;50.10;;;;;;5027818;28;20197;-87
2020/12/02 08:27:57;;;;;;;6.03;4.35;;;17.50;50.10;;;;;;5023708;28;20188;-87
2020/12/02 08:30:25;;;;;;;6.97;4.82;;;17.50;49.90;;;;;;5021634;28;20186;-87
2020/12/02 08:32:57;;;;;;;7.07;4.70;;;17.50;50.10;;;;;;5023142;28;20241;-89
2020/12/02 08:35:26;;;;;;;6.05;4.60;;;17.50;50.10;;;;;;5021969;28;20237;-86
2020/12/02 08:37:58;;;;;;;6.13;4.57;;;17.50;49.80;;;;;;5020107;28;20174;-86
2020/12/02 08:40:35;;;;;;;6.80;4.85;;;17.60;49.70;;;;;;5022198;28;20186;-85
2020/12/02 08:43:22;;;;;;;6.13;4.68;;;17.50;49.90;;;;;;5022939;28;20182;-86
2020/12/02 08:46:06;;;;;;;8.65;5.22;;;17.50;50.00;;;;;;5046050;28;20263;-85
2020/12/02 08:48:32;;;;;;;8.57;4.95;;;17.50;49.90;;;;;;5101671;28;20172;-87
2020/12/02 08:50:58;;;;;;;5.97;4.45;;;17.60;49.90;;;;;;5067248;28;20190;-85
2020/12/02 08:53:32;;;;;;;6.32;4.65;;;17.60;49.60;;;;;;5066962;28;20287;-88
2020/12/02 08:55:58;;;;;;;6.65;4.85;;;17.70;49.70;;;;;;5066984;28;20622;-87
2020/12/02 08:58:24;;;;;;;5.95;4.25;;;17.70;49.70;;;;;;5065387;28;20164;-87
2020/12/02 09:00:50;;;;;;;6.85;4.55;;;17.70;49.90;;;;;;5048963;28;20225;-89
2020/12/02 09:03:16;;;;;;;8.15;4.80;;;17.70;49.70;;;;;;5048716;28;20239;-88
2020/12/02 09:05:43;;;;;;;8.68;4.55;;;17.70;49.90;;;;;;5051185;28;20177;-87
2020/12/02 09:08:18;;;;;;;6.57;4.47;;;17.80;49.70;;;;;;5050410;28;20235;-85
2020/12/02 09:11:29;;;;;;;8.27;4.90;;;17.80;49.60;;;;;;5052683;28;20699;-91
2020/12/02 09:13:59;;;;;;;7.45;4.70;;;17.80;49.50;;;;;;5067028;28;20188;-90
2020/12/02 09:16:35;;;;;;;6.90;4.40;;;17.80;49.40;;;;;;5050712;28;20174;-89
2020/12/02 09:19:04;;;;;;;7.05;4.82;;;17.80;49.60;;;;;;5054859;28;20175;-89
2020/12/02 09:21:50;;;;;;;11.50;4.47;;;17.70;50.00;;;;;;5055923;28;20165;-90
2020/12/02 09:24:20;;;;;;;7.35;4.45;;;17.70;49.90;;;;;;5077155;28;20619;-89
2020/12/02 09:26:49;;;;;;;7.30;4.68;;;17.60;49.90;;;;;;5070911;28;20549;-88
2020/12/02 09:29:29;;;;;;;8.85;5.22;;;17.60;50.00;;;;;;5050321;28;20199;-90
2020/12/02 09:31:54;;;;;;;8.70;4.82;;;17.70;49.90;;;;;;5070727;28;20192;-89
2020/12/02 09:34:23;;;;;;;7.35;4.70;;;17.70;49.90;;;;;;5047734;28;20231;-89
2020/12/02 09:36:57;;;;;;;8.68;5.03;;;17.70;49.90;;;;;;5064837;28;20169;-89
2020/12/02 09:39:25;;;;;;;6.82;4.47;;;17.80;49.80;;;;;;5065513;28;20175;-90
2020/12/02 09:42:09;;;;;;;7.43;4.85;;;17.70;50.10;;;;;;5082197;28;20153;-88
2020/12/02 09:44:39;;;;;;;9.18;4.75;;;17.70;50.00;;;;;;5067129;28;20172;-88
2020/12/02 09:47:08;;;;;;;8.60;4.68;;;17.70;50.70;;;;;;5102123;28;20149;-88
2020/12/02 09:49:40;;;;;;;8.00;4.88;;;17.70;50.00;;;;;;5070762;28;20173;-87
2020/12/02 09:52:18;;;;;;;7.75;4.63;;;17.80;49.90;;;;;;5070323;28;20191;-88
2020/12/02 09:55:22;;;;;;;6.80;4.57;;;17.70;50.10;;;;;;5088888;28;20580;-88
2020/12/02 09:57:51;;;;;;;6.70;4.60;;;17.80;49.80;;;;;;5064921;28;20224;-86
2020/12/02 10:00:28;;;;;;;6.82;4.57;;;17.90;49.90;;;;;;5054627;28;20530;-86
2020/12/02 10:03:36;;;;;;;7.28;4.68;;;17.80;50.00;;;;;;5069777;28;20187;-85
2020/12/02 10:06:17;;;;;;;9.07;4.32;;;17.80;50.10;;;;;;5105314;28;20152;-88
2020/12/02 10:09:10;;;;;;;7.07;4.50;;;17.80;50.10;;;;;;5069296;28;20180;-87
2020/12/02 10:11:55;;;;;;;9.15;5.03;;;17.80;50.20;;;;;;5073379;28;20172;-88
2020/12/02 10:14:48;;;;;;;10.15;5.78;;;17.80;50.30;;;;;;5087690;28;20216;-90
2020/12/02 10:17:41;;;;;;;13.27;4.70;;;17.80;50.10;;;;;;5089437;28;20141;-89
2020/12/02 10:20:24;;;;;;;10.30;4.78;;;17.80;50.20;;;;;;5089405;28;20164;-87
2020/12/02 10:23:11;;;;;;;13.93;5.05;;;17.70;50.50;;;;;;5079716;28;20619;-89
2020/12/02 10:25:47;;;;;;;17.58;4.97;;;17.80;50.70;;;;;;5102814;28;20168;-89
2020/12/02 10:28:25;;;;;;;12.55;5.35;;;17.80;50.70;;;;;;5086865;28;20233;-88
2020/12/02 10:31:02;;;;;;;11.35;4.95;;;17.70;50.80;;;;;;5060658;28;20222;-88
2020/12/02 10:33:38;;;;;;;10.43;5.65;;;17.70;50.80;;;;;;5070193;28;20223;-90
2020/12/02 10:36:05;;;;;;;8.35;5.35;;;17.80;50.70;;;;;;5052701;28;20255;-86
2020/12/02 10:39:35;;;;;;;;;;;;;;;;;;;;;
2020/12/02 12:05:57;;;;;;;8.45;5.45;;;17.90;49.90;;;;;;5096255;27;20507;-89
2020/12/02 12:08:44;;;;;;;7.47;4.88;;;17.90;49.90;;;;;;5077449;28;20200;-88
2020/12/02 12:11:32;;;;;;;9.20;5.32;;;17.90;50.00;;;;;;5081532;28;20248;-89
2020/12/02 12:14:31;;;;;;;7.82;5.22;;;17.90;49.80;;;;;;5082799;28;20184;-89
2020/12/02 12:17:19;;;;;;;10.55;5.22;;;18.00;49.70;;;;;;5099470;28;20275;-90
2020/12/02 12:20:03;;;;;;;7.53;4.90;;;18.00;49.80;;;;;;5080203;28;20171;-88
2020/12/02 12:22:43;;;;;;;8.73;5.40;;;18.00;49.70;;;;;;5078710;28;20543;-89
2020/12/02 12:25:12;;;;;;;10.93;5.28;;;17.90;49.70;;;;;;5078545;28;20222;-88
2020/12/02 12:27:43;;;;;;;9.20;5.20;;;18.00;49.70;;;;;;5094185;28;20785;-89
2020/12/02 12:30:10;;;;;;;8.00;5.25;;;17.90;49.60;;;;;;5078585;28;20294;-89
2020/12/02 12:32:54;;;;;;;6.82;4.95;;;18.00;49.50;;;;;;5077140;28;20181;-89
2020/12/02 12:35:26;;;;;;;8.63;5.38;;;18.00;49.80;;;;;;5095686;28;20172;-90
2020/12/02 12:37:55;;;;;;;7.47;5.15;;;18.00;49.70;;;;;;5073952;28;20187;-89
2020/12/02 12:40:39;;;;;;;9.65;5.18;;;18.00;49.80;;;;;;5076504;28;20188;-88
2020/12/02 12:43:24;;;;;;;9.05;5.57;;;17.90;49.70;;;;;;5076723;28;20164;-90
2020/12/02 12:46:11;;;;;;;11.30;5.53;;;18.00;49.60;;;;;;5092685;28;20176;-89
2020/12/02 12:48:37;;;;;;;8.30;5.53;;;18.00;49.60;;;;;;5077286;28;20168;-90
2020/12/02 12:51:10;;;;;;;15.05;5.60;;;18.00;49.50;;;;;;5076985;28;20194;-89
2020/12/02 12:53:36;;;;;;;13.10;6.05;;;18.00;49.60;;;;;;5077897;28;20169;-89
2020/12/02 12:56:15;;;;;;;11.80;5.97;;;18.00;49.60;;;;;;5093693;28;20176;-90
2020/12/02 12:59:19;;;;;;;8.75;5.05;;;18.10;49.30;;;;;;5081226;28;20176;-89
2020/12/02 13:01:48;;;;;;;10.25;5.47;;;18.10;49.60;;;;;;5085334;28;20192;-88
2020/12/02 13:04:17;;;;;;;11.63;5.85;;;18.00;49.50;;;;;;5080234;28;20678;-87
2020/12/02 13:06:49;;;;;;;12.27;5.70;;;18.10;49.50;;;;;;5062648;28;20206;-88
2020/12/02 13:09:29;;;;;;;9.52;5.63;;;18.10;49.60;;;;;;5097817;28;20269;-88
2020/12/02 13:12:30;;;;;;;8.07;5.40;;;18.00;49.50;;;;;;5081575;28;20222;-89
2020/12/02 13:15:08;;;;;;;;;;;;;;;;;;;;;
2020/12/02 13:18:02;;;;;;;9.75;5.68;;;18.00;49.70;;;;;;5081898;28;20245;-88
2020/12/02 13:21:16;;;;;;;11.07;5.75;;;18.00;49.80;;;;;;5078454;28;20162;-89
2020/12/02 13:24:11;;;;;;;8.82;5.40;;;18.00;49.60;;;;;;5080356;28;20659;-90
2020/12/02 13:26:53;;;;;;;9.70;5.30;;;18.00;49.60;;;;;;4999007;28;20267;-90
2020/12/02 13:29:39;;;;;;;9.32;5.13;;;18.00;49.70;;;;;;4965668;28;20196;-90
2020/12/02 13:32:26;;;;;;;8.50;5.63;;;18.00;50.00;;;;;;4967287;28;20724;-90
2020/12/02 13:35:23;;;;;;;10.20;5.47;;;18.00;49.90;;;;;;4954570;28;20614;-90
2020/12/02 13:38:14;;;;;;;9.95;5.65;;;17.90;49.90;;;;;;4972100;28;20218;-90
2020/12/02 13:40:53;;;;;;;10.10;5.47;;;17.90;49.90;;;;;;4964804;28;20176;-89
2020/12/02 13:43:23;;;;;;;6.47;4.75;;;17.90;50.00;;;;;;4964464;28;20580;-90
2020/12/02 13:45:51;;;;;;;9.48;5.40;;;18.00;49.60;;;;;;4980181;28;20160;-89
2020/12/02 13:48:21;;;;;;;9.85;5.30;;;18.00;49.70;;;;;;4964249;28;20172;-90
2020/12/02 13:50:48;;;;;;;7.80;5.30;;;18.00;49.70;;;;;;4963287;28;20638;-90
2020/12/02 13:53:18;;;;;;;9.90;5.10;;;18.00;49.60;;;;;;4964976;28;20168;-90
2020/12/02 13:56:00;;;;;;;8.80;5.30;;;18.00;49.60;;;;;;4967186;28;20175;-89
2020/12/02 13:58:50;;;;;;;8.63;5.80;;;18.00;49.80;;;;;;4968384;28;20188;-90
2020/12/02 14:01:33;;;;;;;8.07;5.15;;;18.00;49.70;;;;;;4986243;28;20191;-89
2020/12/02 14:04:05;;;;;;;7.72;4.97;;;18.00;49.90;;;;;;5030670;28;20316;-90
2020/12/02 14:07:14;;;;;;;9.27;5.25;;;18.10;49.60;;;;;;5082595;28;20182;-89
2020/12/02 14:09:53;;;;;;;6.90;4.85;;;18.10;49.50;;;;;;5086134;28;20582;-89
2020/12/02 14:12:38;;;;;;;7.45;4.95;;;18.10;49.30;;;;;;5086902;28;20208;-89
2020/12/02 14:15:12;;;;;;;6.85;5.00;;;18.10;49.40;;;;;;5069064;28;20177;-89
2020/12/02 14:18:04;;;;;;;7.93;4.90;;;18.10;49.30;;;;;;5085371;28;20157;-89
2020/12/02 14:20:44;;;;;;;9.65;4.97;;;18.10;49.20;;;;;;5069909;28;20183;-89
2020/12/02 14:23:25;;;;;;;6.53;5.03;;;18.10;49.30;;;;;;5068705;28;20173;-89
2020/12/02 14:25:57;;;;;;;7.57;4.78;;;18.10;49.50;;;;;;5067092;28;20162;-88
2020/12/02 14:28:25;;;;;;;10.27;5.32;;;18.10;49.40;;;;;;5061689;28;20177;-90
2020/12/02 14:31:11;;;;;;;;;;;;;;;;;;;;;
2020/12/02 14:33:50;;;;;;;7.28;4.97;;;18.10;49.40;;;;;;5064661;28;20240;-89
2020/12/02 14:36:52;;;;;;;8.07;5.25;;;18.10;49.60;;;;;;5065361;28;20165;-90
2020/12/02 14:39:41;;;;;;;9.15;5.55;;;18.00;49.80;;;;;;4985009;28;20203;-89
2020/12/02 14:42:52;;;;;;;;;;;;;;;;;;;;;
2020/12/02 14:45:30;;;;;;;7.70;4.70;;;18.10;49.60;;;;;;4942360;29;20273;-88
2020/12/02 14:51:23;;;;;;;;;;;;;;;;;;;;;
2020/12/02 14:54:45;;;;;;;;;;;;;;;;;;;;;
2020/12/02 14:57:47;;;;;;;6.43;4.70;;;18.10;49.70;;;;;;4930583;29;20265;-90
2020/12/02 15:00:48;;;;;;;8.57;4.70;;;18.00;49.60;;;;;;4944204;29;20230;-88
2020/12/02 15:03:43;;;;;;;7.35;4.97;;;18.00;49.70;;;;;;4923234;29;20333;-88
2020/12/02 15:06:49;;;;;;;7.13;4.70;;;18.10;49.60;;;;;;4910976;29;20206;-89
2020/12/02 15:10:04;;;;;;;6.03;4.50;;;18.10;49.60;;;;;;4941651;29;20277;-89
2020/12/02 15:12:58;;;;;;;;;;;;;;;;;;;;;
2020/12/02 15:15:40;;;;;;;7.75;5.15;;;18.00;49.70;;;;;;4933668;28;20659;-89
2020/12/02 15:18:13;;;;;;;7.18;5.10;;;18.10;49.70;;;;;;4987615;28;20160;-86
2020/12/02 15:21:07;;;;;;;7.15;5.32;;;18.10;49.80;;;;;;4971368;28;20182;-87
2020/12/02 15:23:52;;;;;;;7.45;5.00;;;18.00;49.80;;;;;;5063542;28;20206;-87
2020/12/02 15:26:27;;;;;;;9.20;4.90;;;18.10;49.80;;;;;;5046407;28;20166;-87
2020/12/02 15:29:04;;;;;;;7.32;4.93;;;18.10;49.60;;;;;;5049514;28;20162;-87
2020/12/02 15:31:42;;;;;;;8.02;5.13;;;18.10;49.70;;;;;;5063379;28;20162;-87
2020/12/02 15:34:41;;;;;;;6.93;4.82;;;18.00;49.80;;;;;;5044711;28;20208;-88